This demonstration page uses our WeatherBlox Daily Observations layout. Learn more.

Left ArrowRight Arrow

Hourly Observations for March 7, 2020

Temp ( °F °C ) Dew Point ( °F °C ) Humidity (%) Winds ( mph kmh ) Pressure ( in mb ) Visibility ( mi km ) Precip ( " mm )
12:53 am 00:53 Cloudy 34 1.1 26 -3.3 73 73 NNW 9 15 30.49 1033 10 16.0934 N/A
1:53 am 01:53 Cloudy 34 1.1 21 -6.1 59 59 N 6 9 30.5 1033 10 16.0934 N/A
2:53 am 02:53 Cloudy 34 1.1 21 -6.1 59 59 N 5 7 30.5 1033 10 16.0934 N/A
3:53 am 03:53 Cloudy 34 1.1 22 -5.6 61 61 N 5 7 30.5 1033 10 16.0934 N/A
4:53 am 04:53 Cloudy 33 0.6 21 -6.1 61 61 NNE 7 11 30.52 1033 10 16.0934 N/A
5:53 am 05:53 Cloudy 31 -0.6 21 -6.1 67 67 N N/A 30.54 1034 10 16.0934 N/A
6:53 am 06:53 Cloudy 32 undefined 23 -5 69 69 NW 3 6 30.56 1035 10 16.0934 N/A
7:53 am 07:53 Partly Cloudy 33 0.6 23 -5 66 66 NE 3 6 30.57 1035 10 16.0934 N/A
8:53 am 08:53 Mostly Sunny 36 2.2 23 -5 59 59 N 3 6 30.6 1036 10 16.0934 N/A
9:53 am 09:53 Sunny 37 2.8 23 -5 57 57 N N/A 30.61 1037 10 16.0934 N/A
10:53 am 10:53 Sunny 39 3.9 24 -4.4 55 55 VRB 3 6 30.62 1037 10 16.0934 N/A
11:53 am 11:53 Sunny 43 6.1 24 -4.4 47 47 VRB 5 7 30.6 1036 10 16.0934 N/A
12:53 pm 12:53 Sunny 43 6.1 23 -5 45 45 VRB 3 6 30.58 1036 10 16.0934 N/A
1:53 pm 13:53 Sunny 48 8.9 24 -4.4 39 39 VRB 3 6 30.55 1034 10 16.0934 N/A
2:53 pm 14:53 Sunny 47 8.3 22 -5.6 37 37 N N/A 30.52 1034 10 16.0934 N/A
3:53 pm 15:53 Sunny 49 9.4 23 -5 36 36 ENE 5 7 30.51 1033 10 16.0934 N/A
4:53 pm 16:53 Sunny 50 10 20 -6.7 30 30 VRB 3 6 30.49 1032 10 16.0934 N/A
5:53 pm 17:53 Sunny 49 9.4 18 -7.8 29 29 VRB 5 7 30.49 1032 10 16.0934 N/A
6:53 pm 18:53 Clear 45 7.2 19 -7.2 35 35 SSE 3 6 30.48 1032 10 16.0934 N/A
7:53 pm 19:53 Clear 36 2.2 23 -5 59 59 N N/A 30.49 1033 10 16.0934 N/A
8:53 pm 20:53 Clear 33 0.6 26 -3.3 75 75 N N/A 30.5 1033 10 16.0934 N/A
9:53 pm 21:53 Clear 32 undefined 25 -3.9 75 75 N N/A 30.51 1033 10 16.0934 N/A
10:53 pm 22:53 Clear 30 -1.1 23 -5 75 75 N N/A 30.51 1033 10 16.0934 N/A
11:53 pm 23:53 Clear 30 -1.1 23 -5 75 75 N N/A 30.5 1033 10 16.0934 N/A

Powered by AerisWeather